Ana Sayfa
METAR-TAF:

METAR-TAF

Havaalanları :

Eskişehir Anadolu Havalimanı

Eskişehir, Türkiye

Enlem: 39-48-36N, Boylam: 30-31-10E, yükseklik: 789 m

Güncel hava durumu gözlemi

Rapor saat 07:50 UTC de 1 saat ve 2 dakika önce yapıldı.
Rüzgar doğudan 10 kt, doğu/kuzeydoğu ve doğu/güneydoğu arasında değişken
Sıcaklık 26°C
Nem 32%
Basınç 1013 hPa
Görüş mesafesi 10 km veya daha fazla
1500 m altında bulut yok ve kümülonimbus yok

METAR: LTBY 150750Z 08010KT 060V120 CAVOK 26/08 Q1013

Saat: 11:52 (08:52 UTC)

Tahmin

Rapor saat 07:40 UTC de 1 saat ve 12 dakika önce yapıldı.
Ayın 15'si saat 09 UTC'den ayın 15'si saat 18 UTC'ye kadar geçerli Tahmin
Rüzgar doğudan 8 kt
Görüş mesafesi 10 km veya daha fazla
1500 m altında bulut yok ve kümülonimbus yok

TAF: LTBY 150740Z 1509/1518 08008KT CAVOK

4.000'den fazla havaalanı için hava durumu gözlemleri ve tahminleri (METAR ve TAF raporları).

Kullanılabilir istasyonlar harita üzerinde sarı ve kırmızı noktalarla gösterilir.

İstasyonun adını görmek için fareyi noktanın üzerinde gezdirin.

Sonrasında hava gözlem ve tahminlerini görmek için tıklayın.

Haritayı değiştirmek için: yaklaştırmak için siyah artı işaretli yeşil düğmeye ve uzaklaştırmak için de eksi işaretli düğmeye hızla tıklayın; bitişik haritalar için yeşil okları kullanın.


METAR-TAF: